sensor_id;sensor_type;location;lat;lon;timestamp;P1;durP1;ratioP1;P2;durP2;ratioP2
26335;SDS011;14047;50.936;4.654;2023-07-31T00:00:34;17.52;;;5.20;;
26335;SDS011;14047;50.936;4.654;2023-07-31T00:02:59;16.48;;;4.95;;
26335;SDS011;14047;50.936;4.654;2023-07-31T00:05:25;19.05;;;5.30;;
26335;SDS011;14047;50.936;4.654;2023-07-31T00:07:51;17.33;;;5.15;;
26335;SDS011;14047;50.936;4.654;2023-07-31T00:10:19;14.13;;;5.18;;
26335;SDS011;14047;50.936;4.654;2023-07-31T00:12:45;18.48;;;4.82;;
26335;SDS011;14047;50.936;4.654;2023-07-31T00:15:11;15.63;;;5.13;;
26335;SDS011;14047;50.936;4.654;2023-07-31T00:17:39;19.90;;;5.55;;
26335;SDS011;14047;50.936;4.654;2023-07-31T00:20:05;21.48;;;5.78;;
26335;SDS011;14047;50.936;4.654;2023-07-31T00:22:31;19.60;;;5.03;;
26335;SDS011;14047;50.936;4.654;2023-07-31T00:24:57;22.58;;;5.00;;
26335;SDS011;14047;50.936;4.654;2023-07-31T00:27:25;20.92;;;5.20;;
26335;SDS011;14047;50.936;4.654;2023-07-31T00:29:51;22.80;;;5.28;;
26335;SDS011;14047;50.936;4.654;2023-07-31T00:32:17;19.23;;;4.57;;
26335;SDS011;14047;50.936;4.654;2023-07-31T00:34:43;18.55;;;5.70;;
26335;SDS011;14047;50.936;4.654;2023-07-31T00:37:09;16.80;;;4.97;;
26335;SDS011;14047;50.936;4.654;2023-07-31T00:39:35;18.92;;;5.93;;
26335;SDS011;14047;50.936;4.654;2023-07-31T00:42:01;22.38;;;5.30;;
26335;SDS011;14047;50.936;4.654;2023-07-31T00:44:27;18.83;;;5.45;;
26335;SDS011;14047;50.936;4.654;2023-07-31T00:46:53;22.52;;;5.47;;
26335;SDS011;14047;50.936;4.654;2023-07-31T00:49:20;15.98;;;4.57;;
26335;SDS011;14047;50.936;4.654;2023-07-31T00:51:48;19.67;;;5.63;;
26335;SDS011;14047;50.936;4.654;2023-07-31T00:54:14;17.13;;;6.03;;
26335;SDS011;14047;50.936;4.654;2023-07-31T00:56:40;15.00;;;4.72;;
26335;SDS011;14047;50.936;4.654;2023-07-31T00:59:07;16.73;;;5.13;;
26335;SDS011;14047;50.936;4.654;2023-07-31T01:01:33;19.10;;;5.57;;
26335;SDS011;14047;50.936;4.654;2023-07-31T01:03:59;21.45;;;6.05;;
26335;SDS011;14047;50.936;4.654;2023-07-31T01:06:31;23.38;;;5.97;;
26335;SDS011;14047;50.936;4.654;2023-07-31T01:09:15;20.95;;;6.97;;
26335;SDS011;14047;50.936;4.654;2023-07-31T01:11:57;18.42;;;5.72;;
26335;SDS011;14047;50.936;4.654;2023-07-31T01:14:27;19.48;;;5.57;;
26335;SDS011;14047;50.936;4.654;2023-07-31T01:16:53;21.85;;;5.60;;
26335;SDS011;14047;50.936;4.654;2023-07-31T01:19:22;18.98;;;4.72;;
26335;SDS011;14047;50.936;4.654;2023-07-31T01:25:05;22.65;;;5.40;;
26335;SDS011;14047;50.936;4.654;2023-07-31T01:28:05;13.15;;;4.97;;
26335;SDS011;14047;50.936;4.654;2023-07-31T01:30:37;19.17;;;5.97;;
26335;SDS011;14047;50.936;4.654;2023-07-31T01:33:10;22.85;;;5.18;;
26335;SDS011;14047;50.936;4.654;2023-07-31T01:35:36;19.92;;;5.82;;
26335;SDS011;14047;50.936;4.654;2023-07-31T01:38:03;20.33;;;5.40;;
26335;SDS011;14047;50.936;4.654;2023-07-31T01:40:30;18.33;;;5.30;;
26335;SDS011;14047;50.936;4.654;2023-07-31T01:42:56;14.50;;;5.28;;
26335;SDS011;14047;50.936;4.654;2023-07-31T01:45:22;20.23;;;5.05;;
26335;SDS011;14047;50.936;4.654;2023-07-31T01:47:48;12.02;;;4.65;;
26335;SDS011;14047;50.936;4.654;2023-07-31T01:50:14;19.65;;;5.38;;
26335;SDS011;14047;50.936;4.654;2023-07-31T01:52:40;17.35;;;5.03;;
26335;SDS011;14047;50.936;4.654;2023-07-31T01:55:07;15.73;;;5.10;;
26335;SDS011;14047;50.936;4.654;2023-07-31T01:57:36;13.00;;;5.65;;
26335;SDS011;14047;50.936;4.654;2023-07-31T02:00:02;18.20;;;5.70;;
26335;SDS011;14047;50.936;4.654;2023-07-31T02:02:37;17.25;;;5.03;;
26335;SDS011;14047;50.936;4.654;2023-07-31T02:05:03;15.75;;;5.32;;
26335;SDS011;14047;50.936;4.654;2023-07-31T02:07:30;16.27;;;5.10;;
26335;SDS011;14047;50.936;4.654;2023-07-31T02:09:56;12.15;;;5.05;;
26335;SDS011;14047;50.936;4.654;2023-07-31T02:12:22;23.65;;;6.65;;
26335;SDS011;14047;50.936;4.654;2023-07-31T02:14:48;14.13;;;5.03;;
26335;SDS011;14047;50.936;4.654;2023-07-31T02:17:14;18.02;;;5.53;;
26335;SDS011;14047;50.936;4.654;2023-07-31T02:19:40;19.10;;;4.95;;
26335;SDS011;14047;50.936;4.654;2023-07-31T02:22:06;16.80;;;5.15;;
26335;SDS011;14047;50.936;4.654;2023-07-31T02:24:32;19.95;;;5.70;;
26335;SDS011;14047;50.936;4.654;2023-07-31T02:26:58;14.00;;;5.35;;
26335;SDS011;14047;50.936;4.654;2023-07-31T02:29:25;14.05;;;5.07;;
26335;SDS011;14047;50.936;4.654;2023-07-31T02:31:51;16.95;;;5.60;;
26335;SDS011;14047;50.936;4.654;2023-07-31T02:34:16;17.00;;;5.03;;
26335;SDS011;14047;50.936;4.654;2023-07-31T02:36:42;13.02;;;4.55;;
26335;SDS011;14047;50.936;4.654;2023-07-31T02:39:08;17.58;;;5.80;;
26335;SDS011;14047;50.936;4.654;2023-07-31T02:41:34;16.23;;;5.72;;
26335;SDS011;14047;50.936;4.654;2023-07-31T02:44:01;12.95;;;5.30;;
26335;SDS011;14047;50.936;4.654;2023-07-31T02:46:27;15.38;;;5.60;;
26335;SDS011;14047;50.936;4.654;2023-07-31T02:48:52;16.25;;;5.20;;
26335;SDS011;14047;50.936;4.654;2023-07-31T02:51:19;13.52;;;5.50;;
26335;SDS011;14047;50.936;4.654;2023-07-31T02:53:47;11.52;;;5.20;;
26335;SDS011;14047;50.936;4.654;2023-07-31T02:56:13;16.88;;;5.53;;
26335;SDS011;14047;50.936;4.654;2023-07-31T02:58:39;11.80;;;5.10;;
26335;SDS011;14047;50.936;4.654;2023-07-31T03:01:05;14.38;;;5.30;;
26335;SDS011;14047;50.936;4.654;2023-07-31T03:03:31;14.43;;;5.05;;
26335;SDS011;14047;50.936;4.654;2023-07-31T03:05:57;13.73;;;5.00;;
26335;SDS011;14047;50.936;4.654;2023-07-31T03:08:23;10.38;;;4.82;;
26335;SDS011;14047;50.936;4.654;2023-07-31T03:10:49;9.90;;;4.68;;
26335;SDS011;14047;50.936;4.654;2023-07-31T03:13:15;11.98;;;4.85;;
26335;SDS011;14047;50.936;4.654;2023-07-31T03:15:44;12.45;;;4.18;;
26335;SDS011;14047;50.936;4.654;2023-07-31T03:18:10;11.40;;;4.30;;
26335;SDS011;14047;50.936;4.654;2023-07-31T03:20:36;15.25;;;5.32;;
26335;SDS011;14047;50.936;4.654;2023-07-31T03:23:02;15.85;;;4.80;;
26335;SDS011;14047;50.936;4.654;2023-07-31T03:25:28;17.38;;;4.70;;
26335;SDS011;14047;50.936;4.654;2023-07-31T03:27:54;11.38;;;4.25;;
26335;SDS011;14047;50.936;4.654;2023-07-31T03:30:20;10.25;;;4.90;;
26335;SDS011;14047;50.936;4.654;2023-07-31T03:32:46;11.98;;;4.60;;
26335;SDS011;14047;50.936;4.654;2023-07-31T03:35:12;9.13;;;4.88;;
26335;SDS011;14047;50.936;4.654;2023-07-31T03:37:38;11.50;;;4.35;;
26335;SDS011;14047;50.936;4.654;2023-07-31T03:40:04;10.18;;;4.50;;
26335;SDS011;14047;50.936;4.654;2023-07-31T03:42:30;11.50;;;4.45;;
26335;SDS011;14047;50.936;4.654;2023-07-31T03:44:56;12.35;;;4.47;;
26335;SDS011;14047;50.936;4.654;2023-07-31T03:47:22;7.93;;;4.20;;
26335;SDS011;14047;50.936;4.654;2023-07-31T03:49:48;14.45;;;5.10;;
26335;SDS011;14047;50.936;4.654;2023-07-31T03:52:14;11.25;;;4.30;;
26335;SDS011;14047;50.936;4.654;2023-07-31T03:54:40;8.73;;;4.57;;
26335;SDS011;14047;50.936;4.654;2023-07-31T03:57:06;9.68;;;4.82;;
26335;SDS011;14047;50.936;4.654;2023-07-31T03:59:32;11.25;;;5.00;;
26335;SDS011;14047;50.936;4.654;2023-07-31T04:01:58;9.93;;;4.75;;
26335;SDS011;14047;50.936;4.654;2023-07-31T04:04:23;11.60;;;4.63;;
26335;SDS011;14047;50.936;4.654;2023-07-31T04:06:49;8.93;;;4.65;;
26335;SDS011;14047;50.936;4.654;2023-07-31T04:09:15;12.77;;;4.80;;
26335;SDS011;14047;50.936;4.654;2023-07-31T04:11:41;9.73;;;5.45;;
26335;SDS011;14047;50.936;4.654;2023-07-31T04:14:07;12.30;;;5.05;;
26335;SDS011;14047;50.936;4.654;2023-07-31T04:16:33;11.68;;;5.25;;
26335;SDS011;14047;50.936;4.654;2023-07-31T04:18:59;14.48;;;4.97;;
26335;SDS011;14047;50.936;4.654;2023-07-31T04:21:25;14.73;;;5.30;;
26335;SDS011;14047;50.936;4.654;2023-07-31T04:23:51;12.15;;;5.38;;
26335;SDS011;14047;50.936;4.654;2023-07-31T04:26:21;12.50;;;5.00;;
26335;SDS011;14047;50.936;4.654;2023-07-31T04:28:47;11.88;;;4.80;;
26335;SDS011;14047;50.936;4.654;2023-07-31T04:31:13;9.88;;;4.45;;
26335;SDS011;14047;50.936;4.654;2023-07-31T04:33:39;8.43;;;4.55;;
26335;SDS011;14047;50.936;4.654;2023-07-31T04:36:05;11.63;;;4.93;;
26335;SDS011;14047;50.936;4.654;2023-07-31T04:38:31;12.55;;;5.05;;
26335;SDS011;14047;50.936;4.654;2023-07-31T04:40:57;11.00;;;4.55;;
26335;SDS011;14047;50.936;4.654;2023-07-31T04:43:23;12.60;;;4.50;;
26335;SDS011;14047;50.936;4.654;2023-07-31T04:45:49;9.38;;;4.00;;
26335;SDS011;14047;50.936;4.654;2023-07-31T04:48:15;13.23;;;5.45;;
26335;SDS011;14047;50.936;4.654;2023-07-31T04:50:41;10.50;;;4.20;;
26335;SDS011;14047;50.936;4.654;2023-07-31T04:53:07;11.18;;;4.85;;
26335;SDS011;14047;50.936;4.654;2023-07-31T04:55:33;14.68;;;5.03;;
26335;SDS011;14047;50.936;4.654;2023-07-31T04:57:59;16.40;;;4.75;;
26335;SDS011;14047;50.936;4.654;2023-07-31T05:00:25;7.25;;;4.43;;
26335;SDS011;14047;50.936;4.654;2023-07-31T05:02:51;12.52;;;4.88;;
26335;SDS011;14047;50.936;4.654;2023-07-31T05:05:17;15.40;;;4.93;;
26335;SDS011;14047;50.936;4.654;2023-07-31T05:07:43;8.50;;;4.15;;
26335;SDS011;14047;50.936;4.654;2023-07-31T05:10:09;11.48;;;4.80;;
26335;SDS011;14047;50.936;4.654;2023-07-31T05:12:35;9.18;;;4.63;;
26335;SDS011;14047;50.936;4.654;2023-07-31T05:15:01;10.65;;;4.30;;
26335;SDS011;14047;50.936;4.654;2023-07-31T05:17:29;10.05;;;4.90;;
26335;SDS011;14047;50.936;4.654;2023-07-31T05:19:55;12.73;;;4.53;;
26335;SDS011;14047;50.936;4.654;2023-07-31T05:22:20;9.00;;;4.43;;
26335;SDS011;14047;50.936;4.654;2023-07-31T05:24:47;5.18;;;3.78;;
26335;SDS011;14047;50.936;4.654;2023-07-31T05:27:13;7.85;;;4.38;;
26335;SDS011;14047;50.936;4.654;2023-07-31T05:29:40;10.38;;;4.30;;
26335;SDS011;14047;50.936;4.654;2023-07-31T05:32:06;8.35;;;4.18;;
26335;SDS011;14047;50.936;4.654;2023-07-31T05:34:32;8.88;;;4.00;;
26335;SDS011;14047;50.936;4.654;2023-07-31T05:36:58;10.82;;;4.40;;
26335;SDS011;14047;50.936;4.654;2023-07-31T05:39:24;9.77;;;4.18;;
26335;SDS011;14047;50.936;4.654;2023-07-31T05:41:50;9.52;;;4.45;;
26335;SDS011;14047;50.936;4.654;2023-07-31T05:44:16;8.43;;;4.15;;
26335;SDS011;14047;50.936;4.654;2023-07-31T05:46:42;7.95;;;4.00;;
26335;SDS011;14047;50.936;4.654;2023-07-31T05:49:08;9.68;;;3.55;;
26335;SDS011;14047;50.936;4.654;2023-07-31T05:51:34;16.15;;;4.90;;
26335;SDS011;14047;50.936;4.654;2023-07-31T05:54:00;7.88;;;3.83;;
26335;SDS011;14047;50.936;4.654;2023-07-31T05:56:26;8.82;;;4.20;;
26335;SDS011;14047;50.936;4.654;2023-07-31T05:58:52;9.43;;;4.03;;
26335;SDS011;14047;50.936;4.654;2023-07-31T06:01:18;9.48;;;3.38;;
26335;SDS011;14047;50.936;4.654;2023-07-31T06:03:46;10.55;;;3.97;;
26335;SDS011;14047;50.936;4.654;2023-07-31T06:06:12;11.43;;;4.88;;
26335;SDS011;14047;50.936;4.654;2023-07-31T06:08:39;7.35;;;3.60;;
26335;SDS011;14047;50.936;4.654;2023-07-31T06:11:05;14.55;;;4.32;;
26335;SDS011;14047;50.936;4.654;2023-07-31T06:13:32;8.90;;;3.95;;
26335;SDS011;14047;50.936;4.654;2023-07-31T06:15:59;9.93;;;4.65;;
26335;SDS011;14047;50.936;4.654;2023-07-31T06:18:24;7.68;;;4.07;;
26335;SDS011;14047;50.936;4.654;2023-07-31T06:20:51;6.55;;;4.07;;
26335;SDS011;14047;50.936;4.654;2023-07-31T06:23:19;8.60;;;4.03;;
26335;SDS011;14047;50.936;4.654;2023-07-31T06:25:45;13.10;;;4.63;;
26335;SDS011;14047;50.936;4.654;2023-07-31T06:28:12;11.18;;;3.70;;
26335;SDS011;14047;50.936;4.654;2023-07-31T06:30:37;14.52;;;3.92;;
26335;SDS011;14047;50.936;4.654;2023-07-31T06:33:03;11.70;;;3.90;;
26335;SDS011;14047;50.936;4.654;2023-07-31T06:35:29;10.68;;;3.85;;
26335;SDS011;14047;50.936;4.654;2023-07-31T06:37:55;12.60;;;3.67;;
26335;SDS011;14047;50.936;4.654;2023-07-31T06:40:21;11.00;;;4.35;;
26335;SDS011;14047;50.936;4.654;2023-07-31T06:42:48;11.93;;;3.78;;
26335;SDS011;14047;50.936;4.654;2023-07-31T06:45:14;9.63;;;4.10;;
26335;SDS011;14047;50.936;4.654;2023-07-31T06:47:40;8.90;;;3.47;;
26335;SDS011;14047;50.936;4.654;2023-07-31T06:50:06;8.05;;;3.88;;
26335;SDS011;14047;50.936;4.654;2023-07-31T06:52:33;11.95;;;3.88;;
26335;SDS011;14047;50.936;4.654;2023-07-31T06:55:18;12.05;;;4.10;;
26335;SDS011;14047;50.936;4.654;2023-07-31T06:57:45;11.45;;;3.80;;
26335;SDS011;14047;50.936;4.654;2023-07-31T07:00:12;7.15;;;4.10;;
26335;SDS011;14047;50.936;4.654;2023-07-31T07:02:38;6.50;;;4.00;;
26335;SDS011;14047;50.936;4.654;2023-07-31T07:05:05;7.10;;;3.63;;
26335;SDS011;14047;50.936;4.654;2023-07-31T07:07:32;9.80;;;4.32;;
26335;SDS011;14047;50.936;4.654;2023-07-31T07:09:58;10.00;;;4.00;;
26335;SDS011;14047;50.936;4.654;2023-07-31T07:12:28;5.78;;;3.17;;
26335;SDS011;14047;50.936;4.654;2023-07-31T07:14:55;12.48;;;3.83;;
26335;SDS011;14047;50.936;4.654;2023-07-31T07:17:23;4.93;;;2.95;;
26335;SDS011;14047;50.936;4.654;2023-07-31T07:19:49;9.48;;;4.10;;
26335;SDS011;14047;50.936;4.654;2023-07-31T07:22:15;9.63;;;3.53;;
26335;SDS011;14047;50.936;4.654;2023-07-31T07:24:41;8.70;;;3.45;;
26335;SDS011;14047;50.936;4.654;2023-07-31T07:27:07;7.38;;;3.38;;
26335;SDS011;14047;50.936;4.654;2023-07-31T07:29:34;7.97;;;3.13;;
26335;SDS011;14047;50.936;4.654;2023-07-31T07:32:00;7.68;;;3.03;;
26335;SDS011;14047;50.936;4.654;2023-07-31T07:34:26;7.70;;;3.30;;
26335;SDS011;14047;50.936;4.654;2023-07-31T07:36:53;8.00;;;3.63;;
26335;SDS011;14047;50.936;4.654;2023-07-31T07:39:19;4.85;;;2.95;;
26335;SDS011;14047;50.936;4.654;2023-07-31T07:41:46;10.68;;;3.13;;
26335;SDS011;14047;50.936;4.654;2023-07-31T07:44:12;14.38;;;3.83;;
26335;SDS011;14047;50.936;4.654;2023-07-31T07:46:38;9.07;;;2.88;;
26335;SDS011;14047;50.936;4.654;2023-07-31T07:49:04;5.38;;;2.92;;
26335;SDS011;14047;50.936;4.654;2023-07-31T07:51:30;7.07;;;3.30;;
26335;SDS011;14047;50.936;4.654;2023-07-31T07:54:00;8.82;;;3.35;;
26335;SDS011;14047;50.936;4.654;2023-07-31T07:56:27;8.23;;;3.53;;
26335;SDS011;14047;50.936;4.654;2023-07-31T07:58:53;8.73;;;3.53;;
26335;SDS011;14047;50.936;4.654;2023-07-31T08:01:20;7.05;;;3.55;;
26335;SDS011;14047;50.936;4.654;2023-07-31T08:03:46;10.73;;;3.05;;
26335;SDS011;14047;50.936;4.654;2023-07-31T08:06:12;9.23;;;3.33;;
26335;SDS011;14047;50.936;4.654;2023-07-31T08:08:39;9.55;;;3.25;;
26335;SDS011;14047;50.936;4.654;2023-07-31T08:11:05;7.38;;;2.97;;
26335;SDS011;14047;50.936;4.654;2023-07-31T08:13:31;8.88;;;3.75;;
26335;SDS011;14047;50.936;4.654;2023-07-31T08:15:57;5.53;;;2.85;;
26335;SDS011;14047;50.936;4.654;2023-07-31T08:18:23;8.80;;;3.33;;
26335;SDS011;14047;50.936;4.654;2023-07-31T08:20:49;7.15;;;3.15;;
26335;SDS011;14047;50.936;4.654;2023-07-31T08:23:16;6.75;;;2.88;;
26335;SDS011;14047;50.936;4.654;2023-07-31T08:25:42;6.70;;;2.28;;
26335;SDS011;14047;50.936;4.654;2023-07-31T08:28:07;8.23;;;3.20;;
26335;SDS011;14047;50.936;4.654;2023-07-31T08:30:33;6.55;;;2.47;;
26335;SDS011;14047;50.936;4.654;2023-07-31T08:32:59;8.32;;;2.88;;
26335;SDS011;14047;50.936;4.654;2023-07-31T08:35:26;11.68;;;3.42;;
26335;SDS011;14047;50.936;4.654;2023-07-31T08:37:55;4.57;;;2.03;;
26335;SDS011;14047;50.936;4.654;2023-07-31T08:40:21;8.05;;;3.13;;
26335;SDS011;14047;50.936;4.654;2023-07-31T08:42:47;4.35;;;2.65;;
26335;SDS011;14047;50.936;4.654;2023-07-31T08:45:16;9.27;;;2.33;;
26335;SDS011;14047;50.936;4.654;2023-07-31T08:47:45;5.93;;;2.67;;
26335;SDS011;14047;50.936;4.654;2023-07-31T08:50:13;9.68;;;2.70;;
26335;SDS011;14047;50.936;4.654;2023-07-31T08:52:40;5.15;;;2.40;;
26335;SDS011;14047;50.936;4.654;2023-07-31T08:55:06;7.60;;;2.60;;
26335;SDS011;14047;50.936;4.654;2023-07-31T08:57:34;10.13;;;2.80;;
26335;SDS011;14047;50.936;4.654;2023-07-31T09:00:02;6.40;;;2.58;;
26335;SDS011;14047;50.936;4.654;2023-07-31T09:03:13;5.57;;;2.67;;
26335;SDS011;14047;50.936;4.654;2023-07-31T09:05:32;6.88;;;2.60;;
26335;SDS011;14047;50.936;4.654;2023-07-31T09:07:58;6.20;;;3.00;;
26335;SDS011;14047;50.936;4.654;2023-07-31T09:10:27;6.47;;;2.70;;
26335;SDS011;14047;50.936;4.654;2023-07-31T09:12:53;8.15;;;2.75;;
26335;SDS011;14047;50.936;4.654;2023-07-31T09:15:19;5.68;;;2.92;;
26335;SDS011;14047;50.936;4.654;2023-07-31T09:17:46;8.70;;;3.10;;
26335;SDS011;14047;50.936;4.654;2023-07-31T09:20:13;6.43;;;3.08;;
26335;SDS011;14047;50.936;4.654;2023-07-31T09:22:43;8.60;;;3.20;;
26335;SDS011;14047;50.936;4.654;2023-07-31T09:25:20;7.43;;;2.83;;
26335;SDS011;14047;50.936;4.654;2023-07-31T09:27:48;8.55;;;3.25;;
26335;SDS011;14047;50.936;4.654;2023-07-31T09:30:15;5.10;;;3.05;;
26335;SDS011;14047;50.936;4.654;2023-07-31T09:32:43;6.93;;;2.70;;
26335;SDS011;14047;50.936;4.654;2023-07-31T09:37:50;7.15;;;3.55;;
26335;SDS011;14047;50.936;4.654;2023-07-31T09:40:30;9.48;;;3.40;;
26335;SDS011;14047;50.936;4.654;2023-07-31T09:42:57;6.95;;;3.05;;
26335;SDS011;14047;50.936;4.654;2023-07-31T09:45:25;6.95;;;3.13;;
26335;SDS011;14047;50.936;4.654;2023-07-31T09:47:51;5.70;;;2.92;;
26335;SDS011;14047;50.936;4.654;2023-07-31T09:50:19;9.98;;;3.38;;
26335;SDS011;14047;50.936;4.654;2023-07-31T09:52:46;12.65;;;3.13;;
26335;SDS011;14047;50.936;4.654;2023-07-31T09:55:12;7.93;;;2.85;;
26335;SDS011;14047;50.936;4.654;2023-07-31T09:57:48;5.45;;;2.90;;
26335;SDS011;14047;50.936;4.654;2023-07-31T10:00:15;8.68;;;2.35;;
26335;SDS011;14047;50.936;4.654;2023-07-31T10:02:44;6.22;;;2.30;;
26335;SDS011;14047;50.936;4.654;2023-07-31T10:05:15;5.78;;;2.63;;
26335;SDS011;14047;50.936;4.654;2023-07-31T10:07:56;9.65;;;2.55;;
26335;SDS011;14047;50.936;4.654;2023-07-31T10:10:23;4.07;;;2.20;;
26335;SDS011;14047;50.936;4.654;2023-07-31T10:12:50;8.18;;;2.85;;
26335;SDS011;14047;50.936;4.654;2023-07-31T10:15:18;6.47;;;2.38;;
26335;SDS011;14047;50.936;4.654;2023-07-31T10:17:48;6.85;;;2.60;;
26335;SDS011;14047;50.936;4.654;2023-07-31T10:20:16;4.75;;;2.47;;
26335;SDS011;14047;50.936;4.654;2023-07-31T10:22:42;8.75;;;3.45;;
26335;SDS011;14047;50.936;4.654;2023-07-31T10:25:11;6.93;;;2.88;;
26335;SDS011;14047;50.936;4.654;2023-07-31T10:27:41;8.93;;;3.70;;
26335;SDS011;14047;50.936;4.654;2023-07-31T10:30:26;7.18;;;2.95;;
26335;SDS011;14047;50.936;4.654;2023-07-31T10:32:55;5.65;;;3.13;;
26335;SDS011;14047;50.936;4.654;2023-07-31T10:35:22;6.28;;;3.08;;
26335;SDS011;14047;50.936;4.654;2023-07-31T10:37:48;8.48;;;3.13;;
26335;SDS011;14047;50.936;4.654;2023-07-31T10:40:18;8.95;;;3.17;;
26335;SDS011;14047;50.936;4.654;2023-07-31T10:42:49;9.20;;;3.30;;
26335;SDS011;14047;50.936;4.654;2023-07-31T10:45:31;12.27;;;5.15;;
26335;SDS011;14047;50.936;4.654;2023-07-31T10:48:05;10.02;;;3.70;;
26335;SDS011;14047;50.936;4.654;2023-07-31T10:50:38;4.78;;;3.03;;
26335;SDS011;14047;50.936;4.654;2023-07-31T10:53:24;10.23;;;4.13;;
26335;SDS011;14047;50.936;4.654;2023-07-31T10:55:51;8.07;;;3.47;;
26335;SDS011;14047;50.936;4.654;2023-07-31T10:58:18;8.13;;;3.40;;
26335;SDS011;14047;50.936;4.654;2023-07-31T11:00:46;8.82;;;3.50;;
26335;SDS011;14047;50.936;4.654;2023-07-31T11:03:16;6.40;;;3.33;;
26335;SDS011;14047;50.936;4.654;2023-07-31T11:05:50;11.57;;;3.63;;
26335;SDS011;14047;50.936;4.654;2023-07-31T11:10:50;10.00;;;3.75;;
26335;SDS011;14047;50.936;4.654;2023-07-31T11:13:31;8.63;;;3.90;;
26335;SDS011;14047;50.936;4.654;2023-07-31T11:16:18;11.55;;;3.47;;
26335;SDS011;14047;50.936;4.654;2023-07-31T11:18:48;7.68;;;3.42;;
26335;SDS011;14047;50.936;4.654;2023-07-31T11:21:25;9.90;;;3.65;;
26335;SDS011;14047;50.936;4.654;2023-07-31T11:23:57;13.35;;;3.67;;
26335;SDS011;14047;50.936;4.654;2023-07-31T11:26:24;11.57;;;4.03;;
26335;SDS011;14047;50.936;4.654;2023-07-31T11:28:50;10.05;;;4.78;;
26335;SDS011;14047;50.936;4.654;2023-07-31T11:31:17;9.30;;;3.65;;
26335;SDS011;14047;50.936;4.654;2023-07-31T11:33:43;8.63;;;3.70;;
26335;SDS011;14047;50.936;4.654;2023-07-31T11:36:16;8.35;;;3.67;;
26335;SDS011;14047;50.936;4.654;2023-07-31T11:38:43;13.35;;;3.33;;
26335;SDS011;14047;50.936;4.654;2023-07-31T11:41:09;7.88;;;3.60;;
26335;SDS011;14047;50.936;4.654;2023-07-31T11:43:35;10.15;;;4.35;;
26335;SDS011;14047;50.936;4.654;2023-07-31T11:46:02;8.00;;;4.15;;
26335;SDS011;14047;50.936;4.654;2023-07-31T11:51:13;13.13;;;3.75;;
26335;SDS011;14047;50.936;4.654;2023-07-31T11:53:57;10.38;;;3.78;;
26335;SDS011;14047;50.936;4.654;2023-07-31T11:56:25;10.85;;;4.18;;
26335;SDS011;14047;50.936;4.654;2023-07-31T11:58:57;9.02;;;4.32;;
26335;SDS011;14047;50.936;4.654;2023-07-31T12:01:24;11.38;;;4.22;;
26335;SDS011;14047;50.936;4.654;2023-07-31T12:03:53;9.95;;;4.45;;
26335;SDS011;14047;50.936;4.654;2023-07-31T12:06:19;9.80;;;3.90;;
26335;SDS011;14047;50.936;4.654;2023-07-31T12:08:46;11.98;;;4.20;;
26335;SDS011;14047;50.936;4.654;2023-07-31T12:11:13;11.57;;;4.03;;
26335;SDS011;14047;50.936;4.654;2023-07-31T12:13:40;10.70;;;4.32;;
26335;SDS011;14047;50.936;4.654;2023-07-31T12:16:06;11.27;;;4.00;;
26335;SDS011;14047;50.936;4.654;2023-07-31T12:18:36;8.55;;;3.53;;
26335;SDS011;14047;50.936;4.654;2023-07-31T12:21:04;9.95;;;3.90;;
26335;SDS011;14047;50.936;4.654;2023-07-31T12:23:32;11.10;;;3.97;;
26335;SDS011;14047;50.936;4.654;2023-07-31T12:26:05;10.48;;;4.45;;
26335;SDS011;14047;50.936;4.654;2023-07-31T12:28:36;9.63;;;3.80;;
26335;SDS011;14047;50.936;4.654;2023-07-31T12:31:07;9.32;;;4.15;;
26335;SDS011;14047;50.936;4.654;2023-07-31T12:33:38;9.25;;;3.90;;
26335;SDS011;14047;50.936;4.654;2023-07-31T12:36:09;8.88;;;3.80;;
26335;SDS011;14047;50.936;4.654;2023-07-31T12:38:36;11.30;;;3.80;;
26335;SDS011;14047;50.936;4.654;2023-07-31T12:41:02;7.05;;;3.63;;
26335;SDS011;14047;50.936;4.654;2023-07-31T12:43:29;8.15;;;4.25;;
26335;SDS011;14047;50.936;4.654;2023-07-31T12:45:55;9.07;;;4.18;;
26335;SDS011;14047;50.936;4.654;2023-07-31T12:48:23;9.27;;;3.85;;
26335;SDS011;14047;50.936;4.654;2023-07-31T12:50:49;7.57;;;3.70;;
26335;SDS011;14047;50.936;4.654;2023-07-31T12:53:16;7.57;;;3.70;;
26335;SDS011;14047;50.936;4.654;2023-07-31T12:55:42;9.65;;;3.72;;
26335;SDS011;14047;50.936;4.654;2023-07-31T12:58:08;10.82;;;4.22;;
26335;SDS011;14047;50.936;4.654;2023-07-31T13:00:34;9.75;;;4.28;;
26335;SDS011;14047;50.936;4.654;2023-07-31T13:03:00;8.05;;;3.55;;
26335;SDS011;14047;50.936;4.654;2023-07-31T13:05:27;9.35;;;3.80;;
26335;SDS011;14047;50.936;4.654;2023-07-31T13:07:53;12.88;;;4.80;;
26335;SDS011;14047;50.936;4.654;2023-07-31T13:10:19;9.57;;;3.85;;
26335;SDS011;14047;50.936;4.654;2023-07-31T13:12:46;8.70;;;3.78;;
26335;SDS011;14047;50.936;4.654;2023-07-31T13:15:12;10.40;;;4.43;;
26335;SDS011;14047;50.936;4.654;2023-07-31T13:17:38;7.93;;;4.00;;
26335;SDS011;14047;50.936;4.654;2023-07-31T13:20:04;21.35;;;4.70;;
26335;SDS011;14047;50.936;4.654;2023-07-31T13:22:30;11.85;;;3.63;;
26335;SDS011;14047;50.936;4.654;2023-07-31T13:24:56;10.43;;;3.97;;
26335;SDS011;14047;50.936;4.654;2023-07-31T13:27:22;9.25;;;3.90;;
26335;SDS011;14047;50.936;4.654;2023-07-31T13:29:50;7.55;;;3.60;;
26335;SDS011;14047;50.936;4.654;2023-07-31T13:32:19;9.98;;;3.53;;
26335;SDS011;14047;50.936;4.654;2023-07-31T13:34:46;10.93;;;3.55;;
26335;SDS011;14047;50.936;4.654;2023-07-31T13:37:13;7.88;;;2.95;;
26335;SDS011;14047;50.936;4.654;2023-07-31T13:39:40;8.77;;;3.00;;
26335;SDS011;14047;50.936;4.654;2023-07-31T13:42:06;9.80;;;3.20;;
26335;SDS011;14047;50.936;4.654;2023-07-31T13:44:34;8.10;;;3.70;;
26335;SDS011;14047;50.936;4.654;2023-07-31T13:47:00;12.55;;;3.40;;
26335;SDS011;14047;50.936;4.654;2023-07-31T13:49:27;7.53;;;3.03;;
26335;SDS011;14047;50.936;4.654;2023-07-31T13:51:53;5.38;;;2.75;;
26335;SDS011;14047;50.936;4.654;2023-07-31T13:54:19;6.40;;;2.92;;
26335;SDS011;14047;50.936;4.654;2023-07-31T13:56:45;7.85;;;3.20;;
26335;SDS011;14047;50.936;4.654;2023-07-31T13:59:11;5.50;;;2.53;;
26335;SDS011;14047;50.936;4.654;2023-07-31T14:01:37;6.40;;;3.10;;
26335;SDS011;14047;50.936;4.654;2023-07-31T14:04:03;6.47;;;2.88;;
26335;SDS011;14047;50.936;4.654;2023-07-31T14:06:29;7.28;;;2.50;;
26335;SDS011;14047;50.936;4.654;2023-07-31T14:08:55;3.97;;;2.15;;
26335;SDS011;14047;50.936;4.654;2023-07-31T14:11:21;4.40;;;2.55;;
26335;SDS011;14047;50.936;4.654;2023-07-31T14:13:48;6.95;;;2.63;;
26335;SDS011;14047;50.936;4.654;2023-07-31T14:16:15;4.75;;;2.50;;
26335;SDS011;14047;50.936;4.654;2023-07-31T14:18:41;4.55;;;2.40;;
26335;SDS011;14047;50.936;4.654;2023-07-31T14:21:07;3.92;;;2.30;;
26335;SDS011;14047;50.936;4.654;2023-07-31T14:23:33;4.80;;;2.50;;
26335;SDS011;14047;50.936;4.654;2023-07-31T14:26:00;3.50;;;1.83;;
26335;SDS011;14047;50.936;4.654;2023-07-31T14:28:25;8.02;;;2.30;;
26335;SDS011;14047;50.936;4.654;2023-07-31T14:30:52;6.88;;;2.60;;
26335;SDS011;14047;50.936;4.654;2023-07-31T14:33:18;6.18;;;2.65;;
26335;SDS011;14047;50.936;4.654;2023-07-31T14:35:44;5.50;;;2.17;;
26335;SDS011;14047;50.936;4.654;2023-07-31T14:38:10;3.60;;;2.13;;
26335;SDS011;14047;50.936;4.654;2023-07-31T14:40:36;9.13;;;2.63;;
26335;SDS011;14047;50.936;4.654;2023-07-31T14:43:03;8.52;;;3.00;;
26335;SDS011;14047;50.936;4.654;2023-07-31T14:45:30;8.82;;;2.50;;
26335;SDS011;14047;50.936;4.654;2023-07-31T14:47:56;6.75;;;2.92;;
26335;SDS011;14047;50.936;4.654;2023-07-31T14:50:22;4.22;;;2.42;;
26335;SDS011;14047;50.936;4.654;2023-07-31T14:52:49;5.40;;;2.85;;